createdAt,value
2023-05-09T00:01:11.616Z,8.50
2023-05-09T00:03:38.734Z,8.90
2023-05-09T00:06:07.281Z,9.10
2023-05-09T00:08:34.412Z,8.73
2023-05-09T00:11:02.023Z,7.17
2023-05-09T00:13:28.962Z,7.63
2023-05-09T00:15:57.808Z,7.43
2023-05-09T00:18:24.770Z,7.93
2023-05-09T00:20:51.873Z,6.30
2023-05-09T00:23:19.015Z,6.70
2023-05-09T00:25:46.163Z,6.03
2023-05-09T00:28:13.210Z,5.93
2023-05-09T00:30:39.802Z,6.67
2023-05-09T00:33:06.951Z,6.07
2023-05-09T00:35:35.346Z,8.73
2023-05-09T00:38:02.375Z,10.03
2023-05-09T00:40:29.342Z,11.33
2023-05-09T00:42:58.819Z,7.17
2023-05-09T00:45:26.032Z,6.67
2023-05-09T00:47:53.207Z,6.33
2023-05-09T00:50:20.256Z,5.23
2023-05-09T00:52:47.283Z,5.43
2023-05-09T00:55:15.536Z,5.63
2023-05-09T00:57:42.854Z,5.80
2023-05-09T01:00:15.934Z,5.47
2023-05-09T01:02:43.788Z,5.90
2023-05-09T01:05:11.562Z,5.53
2023-05-09T01:07:42.156Z,4.97
2023-05-09T01:10:15.332Z,5.37
2023-05-09T01:12:53.451Z,4.87
2023-05-09T01:15:25.566Z,6.63
2023-05-09T01:18:11.087Z,6.40
2023-05-09T01:20:40.450Z,5.10
2023-05-09T01:23:13.756Z,5.47
2023-05-09T01:25:56.025Z,6.10
2023-05-09T01:28:41.607Z,5.00
2023-05-09T01:31:09.521Z,7.40
2023-05-09T01:33:38.936Z,6.87
2023-05-09T01:36:08.431Z,6.70
2023-05-09T01:38:37.594Z,6.13
2023-05-09T01:41:06.493Z,8.33
2023-05-09T01:43:34.143Z,9.57
2023-05-09T01:46:01.560Z,8.93
2023-05-09T01:48:30.527Z,8.37
2023-05-09T01:50:58.326Z,6.57
2023-05-09T01:53:26.521Z,6.70
2023-05-09T01:55:53.993Z,6.53
2023-05-09T01:58:21.769Z,5.93
2023-05-09T02:00:49.594Z,5.63
2023-05-09T02:03:16.830Z,5.80
2023-05-09T02:05:44.858Z,6.33
2023-05-09T02:08:12.158Z,5.47
2023-05-09T02:10:39.467Z,6.07
2023-05-09T02:13:07.355Z,6.03
2023-05-09T02:15:34.811Z,6.03
2023-05-09T02:18:01.992Z,5.97
2023-05-09T02:20:29.172Z,6.93
2023-05-09T02:22:56.222Z,6.87
2023-05-09T02:25:23.797Z,6.93
2023-05-09T02:27:52.117Z,6.80
2023-05-09T02:30:23.759Z,6.90
2023-05-09T02:32:52.330Z,6.50
2023-05-09T02:35:20.394Z,5.50
2023-05-09T02:37:48.106Z,5.67
2023-05-09T02:40:15.323Z,6.20
2023-05-09T02:42:42.473Z,5.57
2023-05-09T02:45:11.127Z,5.00
2023-05-09T02:47:38.790Z,6.03
2023-05-09T02:50:06.268Z,5.70
2023-05-09T02:52:33.354Z,6.20
2023-05-09T02:55:00.366Z,5.97
2023-05-09T02:57:27.429Z,5.50
2023-05-09T02:59:54.418Z,4.87
2023-05-09T03:02:21.554Z,6.27
2023-05-09T03:04:48.597Z,5.17
2023-05-09T03:07:15.730Z,5.27
2023-05-09T03:09:42.934Z,5.43
2023-05-09T03:12:09.957Z,5.40
2023-05-09T03:14:37.020Z,5.30
2023-05-09T03:17:04.129Z,5.67
2023-05-09T03:19:31.146Z,7.23
2023-05-09T03:21:58.085Z,6.57
2023-05-09T03:24:27.083Z,7.17
2023-05-09T03:26:54.300Z,6.33
2023-05-09T03:29:21.565Z,6.30
2023-05-09T03:31:48.863Z,5.80
2023-05-09T03:34:16.066Z,5.90
2023-05-09T03:36:46.018Z,6.13
2023-05-09T03:39:13.023Z,6.03
2023-05-09T03:41:40.065Z,6.27
2023-05-09T03:44:07.192Z,5.97
2023-05-09T03:46:34.328Z,6.17
2023-05-09T03:49:01.550Z,7.23
2023-05-09T03:51:28.613Z,6.20
2023-05-09T03:53:55.920Z,6.17
2023-05-09T03:56:22.905Z,4.93
2023-05-09T03:58:50.038Z,4.80
2023-05-09T04:01:16.993Z,5.55
2023-05-09T04:03:44.166Z,5.20
2023-05-09T04:06:11.383Z,5.45
2023-05-09T04:08:38.566Z,5.40
2023-05-09T04:11:06.554Z,5.72
2023-05-09T04:13:34.273Z,6.28
2023-05-09T04:16:02.197Z,6.30
2023-05-09T04:18:29.203Z,6.47
2023-05-09T04:20:56.342Z,7.50
2023-05-09T04:23:24.086Z,7.90
2023-05-09T04:25:54.842Z,8.27
2023-05-09T04:28:21.915Z,9.20
2023-05-09T04:30:48.870Z,9.35
2023-05-09T04:33:16.187Z,9.85
2023-05-09T04:35:43.295Z,10.25
2023-05-09T04:38:10.467Z,8.73
2023-05-09T04:40:37.542Z,9.25
2023-05-09T04:43:04.740Z,10.73
2023-05-09T04:45:32.449Z,8.90
2023-05-09T04:47:59.513Z,9.00
2023-05-09T04:50:26.948Z,9.68
2023-05-09T04:52:54.013Z,10.25
2023-05-09T04:55:21.045Z,10.00
2023-05-09T04:57:48.279Z,10.57
2023-05-09T05:00:17.293Z,11.95
2023-05-09T05:02:44.284Z,8.90
2023-05-09T05:05:12.604Z,8.43
2023-05-09T05:07:39.993Z,8.68
2023-05-09T05:10:07.396Z,7.05
2023-05-09T05:12:34.440Z,7.13
2023-05-09T05:15:01.529Z,7.13
2023-05-09T05:17:30.038Z,7.05
2023-05-09T05:19:57.024Z,5.82
2023-05-09T05:22:24.869Z,4.75
2023-05-09T05:24:51.902Z,5.03
2023-05-09T05:27:19.016Z,4.57
2023-05-09T05:29:46.175Z,4.07
2023-05-09T05:32:13.444Z,4.32
2023-05-09T05:34:40.522Z,4.32
2023-05-09T05:37:07.813Z,4.55
2023-05-09T05:39:34.802Z,4.15
2023-05-09T05:42:01.866Z,4.43
2023-05-09T05:44:28.932Z,4.50
2023-05-09T05:46:56.157Z,4.07
2023-05-09T05:49:25.483Z,6.82
2023-05-09T05:51:52.549Z,6.22
2023-05-09T05:54:19.701Z,4.30
2023-05-09T05:56:46.896Z,3.90
2023-05-09T05:59:13.884Z,4.72
2023-05-09T06:01:41.218Z,4.05
2023-05-09T06:04:08.625Z,3.97
2023-05-09T06:06:35.880Z,3.70
2023-05-09T06:09:03.526Z,3.10
2023-05-09T06:11:30.700Z,2.90
2023-05-09T06:13:57.440Z,3.22
2023-05-09T06:16:26.385Z,3.55
2023-05-09T06:18:55.789Z,3.83
2023-05-09T06:21:23.481Z,4.00
2023-05-09T06:24:04.299Z,3.58
2023-05-09T06:26:33.508Z,3.95
2023-05-09T06:29:00.549Z,3.75
2023-05-09T06:31:27.830Z,3.10
2023-05-09T06:33:54.793Z,3.75
2023-05-09T06:36:25.133Z,2.55
2023-05-09T06:38:52.080Z,3.00
2023-05-09T06:41:20.173Z,3.05
2023-05-09T06:43:47.833Z,3.53
2023-05-09T06:46:15.048Z,3.25
2023-05-09T06:48:42.435Z,2.97
2023-05-09T06:51:09.859Z,3.10
2023-05-09T06:53:36.891Z,3.70
2023-05-09T06:56:04.130Z,3.40
2023-05-09T06:58:31.597Z,3.58
2023-05-09T07:00:58.701Z,3.35
2023-05-09T07:03:26.715Z,3.05
2023-05-09T07:05:53.868Z,3.58
2023-05-09T07:08:20.954Z,2.90
2023-05-09T07:10:48.171Z,3.40
2023-05-09T07:13:40.215Z,3.33
2023-05-09T07:16:09.192Z,3.17
2023-05-09T07:18:47.287Z,3.40
2023-05-09T07:21:47.574Z,3.05
2023-05-09T07:27:52.724Z,2.80
2023-05-09T07:30:22.309Z,2.65
2023-05-09T07:32:53.586Z,4.03
2023-05-09T07:37:54.443Z,2.20
2023-05-09T07:42:57.426Z,2.28
2023-05-09T07:48:09.140Z,3.03
2023-05-09T07:50:52.545Z,2.10
2023-05-09T07:53:21.991Z,2.72
2023-05-09T07:56:07.936Z,2.80
2023-05-09T08:18:12.231Z,2.00
2023-05-09T08:27:53.962Z,1.90
2023-05-09T08:33:24.484Z,1.90
2023-05-09T08:35:58.894Z,1.85
2023-05-09T08:47:15.253Z,2.38
2023-05-09T08:50:06.867Z,1.95
2023-05-09T10:16:42.689Z,2.22
2023-05-09T10:19:10.952Z,2.45
2023-05-09T10:21:39.435Z,1.95
2023-05-09T10:24:09.687Z,2.60
2023-05-09T10:26:38.234Z,2.13
2023-05-09T10:29:08.152Z,3.25
2023-05-09T10:31:37.172Z,2.13
2023-05-09T10:34:06.903Z,2.30
2023-05-09T10:36:33.433Z,2.30
2023-05-09T10:39:00.381Z,3.58
2023-05-09T10:41:26.990Z,2.45
2023-05-09T10:43:55.775Z,2.58
2023-05-09T10:46:23.442Z,2.47
2023-05-09T10:48:50.156Z,2.13
2023-05-09T10:51:17.309Z,2.40
2023-05-09T10:53:45.140Z,2.42
2023-05-09T10:56:29.525Z,2.00
2023-05-09T10:58:56.795Z,2.17
2023-05-09T11:01:49.880Z,2.22
2023-05-09T11:04:17.206Z,2.28
2023-05-09T11:06:44.095Z,2.20
2023-05-09T11:09:29.049Z,2.35
2023-05-09T11:11:55.863Z,2.13
2023-05-09T11:14:32.705Z,2.38
2023-05-09T11:17:00.266Z,2.08
2023-05-09T11:19:45.618Z,2.20
2023-05-09T11:22:28.803Z,3.83
2023-05-09T11:25:01.558Z,2.10
2023-05-09T11:27:29.092Z,2.22
2023-05-09T11:29:57.108Z,2.67
2023-05-09T11:32:33.070Z,2.13
2023-05-09T11:35:27.097Z,2.20
2023-05-09T11:38:00.358Z,2.10
2023-05-09T11:40:28.020Z,2.08
2023-05-09T11:42:58.427Z,2.00
2023-05-09T11:45:27.517Z,2.00
2023-05-09T11:47:54.643Z,2.40
2023-05-09T11:50:21.875Z,2.17
2023-05-09T11:52:48.804Z,1.90
2023-05-09T11:55:20.001Z,1.77
2023-05-09T11:57:49.163Z,2.13
2023-05-09T12:00:18.616Z,1.95
2023-05-09T12:02:46.378Z,1.92
2023-05-09T12:05:17.258Z,2.22
2023-05-09T12:07:44.854Z,1.98
2023-05-09T12:10:13.108Z,2.22
2023-05-09T12:12:46.061Z,2.40
2023-05-09T12:15:13.856Z,2.08
2023-05-09T12:17:44.230Z,2.38
2023-05-09T12:20:11.270Z,1.98
2023-05-09T12:22:38.004Z,1.98
2023-05-09T12:25:08.850Z,2.10
2023-05-09T12:27:35.908Z,2.38
2023-05-09T12:30:04.041Z,2.28
2023-05-09T12:32:33.042Z,2.53
2023-05-09T12:35:03.499Z,2.80
2023-05-09T12:37:31.042Z,1.92
2023-05-09T12:40:05.027Z,2.47
2023-05-09T12:42:35.357Z,2.30
2023-05-09T12:45:02.479Z,2.88
2023-05-09T12:47:29.761Z,2.40
2023-05-09T12:49:59.840Z,2.58
2023-05-09T12:52:26.971Z,2.03
2023-05-09T12:54:53.869Z,2.30
2023-05-09T12:57:23.880Z,2.22
2023-05-09T12:59:50.624Z,2.20
2023-05-09T13:02:17.825Z,2.08
2023-05-09T13:04:44.618Z,2.22
2023-05-09T13:07:11.117Z,1.80
2023-05-09T13:09:53.737Z,2.10
2023-05-09T13:12:20.774Z,2.03
2023-05-09T13:14:47.376Z,2.10
2023-05-09T13:17:13.998Z,2.42
2023-05-09T13:19:40.634Z,2.33
2023-05-09T13:22:07.121Z,2.33
2023-05-09T13:24:33.628Z,2.22
2023-05-09T13:27:00.172Z,2.33
2023-05-09T13:29:26.674Z,2.20
2023-05-09T13:31:53.193Z,2.22
2023-05-09T13:34:19.665Z,2.58
2023-05-09T13:36:46.341Z,2.13
2023-05-09T13:39:13.559Z,2.30
2023-05-09T13:41:40.138Z,3.10
2023-05-09T13:44:06.707Z,2.60
2023-05-09T13:46:33.349Z,2.33
2023-05-09T13:49:00.597Z,2.00
2023-05-09T13:51:27.454Z,2.20
2023-05-09T13:53:54.023Z,1.80
2023-05-09T13:56:20.975Z,2.25
2023-05-09T13:58:47.481Z,2.08
2023-05-09T14:01:14.102Z,2.40
2023-05-09T14:03:40.817Z,2.30
2023-05-09T14:06:09.502Z,2.50
2023-05-09T14:08:36.200Z,2.13
2023-05-09T14:11:03.066Z,2.42
2023-05-09T14:13:32.165Z,2.05
2023-05-09T14:15:58.873Z,2.00
2023-05-09T14:18:25.465Z,4.60
2023-05-09T14:20:52.284Z,2.58
2023-05-09T14:23:19.530Z,1.77
2023-05-09T14:26:00.060Z,2.38
2023-05-09T14:28:27.157Z,2.87
2023-05-09T14:30:53.841Z,2.30
2023-05-09T14:33:20.424Z,3.17
2023-05-09T14:35:47.686Z,2.17
2023-05-09T14:38:14.243Z,2.42
2023-05-09T14:40:41.177Z,2.13
2023-05-09T14:43:09.632Z,2.45
2023-05-09T14:45:36.252Z,2.10
2023-05-09T14:48:03.650Z,2.05
2023-05-09T14:50:30.376Z,2.88
2023-05-09T14:52:57.139Z,2.08
2023-05-09T14:55:39.405Z,2.50
2023-05-09T14:58:06.000Z,2.33
2023-05-09T15:00:34.233Z,2.15
2023-05-09T15:25:19.613Z,2.22
2023-05-09T15:27:50.652Z,2.47
2023-05-09T15:30:17.422Z,2.47
2023-05-09T15:32:44.198Z,2.20
2023-05-09T15:35:11.096Z,2.60
2023-05-09T15:37:37.920Z,2.67
2023-05-09T15:40:04.734Z,2.88
2023-05-09T15:42:31.548Z,2.72
2023-05-09T15:44:58.197Z,2.70
2023-05-09T15:47:24.808Z,2.30
2023-05-09T15:49:51.523Z,3.15
2023-05-09T15:52:23.831Z,3.00
2023-05-09T15:54:50.980Z,2.15
2023-05-09T15:57:18.476Z,2.67
2023-05-09T15:59:45.042Z,2.40
2023-05-09T16:02:12.563Z,2.60
2023-05-09T16:04:42.647Z,2.42
2023-05-09T16:07:09.131Z,3.08
2023-05-09T16:09:35.686Z,3.10
2023-05-09T16:12:02.348Z,2.72
2023-05-09T16:14:28.929Z,2.92
2023-05-09T16:16:56.482Z,3.30
2023-05-09T16:19:23.556Z,2.47
2023-05-09T16:21:50.301Z,2.17
2023-05-09T16:24:17.030Z,2.25
2023-05-09T16:26:43.688Z,2.80
2023-05-09T16:29:10.832Z,2.30
2023-05-09T16:31:37.474Z,2.78
2023-05-09T16:34:04.229Z,26.42
2023-05-09T16:36:32.978Z,3.28
2023-05-09T16:38:59.499Z,2.70
2023-05-09T16:41:26.776Z,2.30
2023-05-09T16:43:56.364Z,2.40
2023-05-09T16:46:24.372Z,2.28
2023-05-09T16:48:51.952Z,2.90
2023-05-09T16:51:18.554Z,4.20
2023-05-09T16:53:45.275Z,2.33
2023-05-09T16:56:12.097Z,2.65
2023-05-09T16:58:44.877Z,2.00
2023-05-09T17:01:18.080Z,2.90
2023-05-09T17:03:47.409Z,2.25
2023-05-09T17:06:15.565Z,2.30
2023-05-09T17:08:42.794Z,2.70
2023-05-09T17:11:09.873Z,3.47
2023-05-09T17:13:36.518Z,3.50
2023-05-09T17:16:03.372Z,2.42
2023-05-09T17:18:37.668Z,2.55
2023-05-09T17:21:04.827Z,2.13
2023-05-09T17:23:31.909Z,3.17
2023-05-09T17:25:59.520Z,2.83
2023-05-09T17:28:26.131Z,2.17
2023-05-09T17:30:52.772Z,4.68
2023-05-09T17:33:19.583Z,2.53
2023-05-09T17:35:49.552Z,2.10
2023-05-09T17:38:16.126Z,1.98
2023-05-09T17:40:43.326Z,2.45
2023-05-09T17:43:10.025Z,2.30
2023-05-09T17:45:36.655Z,2.40
2023-05-09T17:48:03.526Z,2.78
2023-05-09T17:50:31.278Z,2.65
2023-05-09T17:52:58.778Z,2.17
2023-05-09T17:55:25.335Z,3.25
2023-05-09T17:57:52.576Z,3.17
2023-05-09T18:00:19.858Z,2.88
2023-05-09T18:02:48.455Z,2.75
2023-05-09T18:05:15.158Z,3.15
2023-05-09T18:07:41.789Z,2.70
2023-05-09T18:10:09.117Z,3.17
2023-05-09T18:12:37.314Z,2.75
2023-05-09T18:15:05.029Z,2.92
2023-05-09T18:17:31.718Z,4.75
2023-05-09T18:19:58.407Z,2.83
2023-05-09T18:22:25.496Z,2.78
2023-05-09T18:24:52.676Z,3.72
2023-05-09T18:27:19.423Z,3.78
2023-05-09T18:29:47.629Z,3.78
2023-05-09T18:32:18.105Z,4.60
2023-05-09T18:34:44.979Z,6.07
2023-05-09T18:37:11.757Z,8.02
2023-05-09T18:39:38.413Z,8.68
2023-05-09T18:42:06.531Z,8.55
2023-05-09T18:44:34.206Z,8.27
2023-05-09T18:47:01.067Z,6.07
2023-05-09T18:49:27.716Z,3.55
2023-05-09T18:51:55.135Z,4.40
2023-05-09T18:54:21.667Z,4.30
2023-05-09T18:56:48.597Z,4.80
2023-05-09T18:59:16.606Z,5.78
2023-05-09T19:01:44.225Z,6.55
2023-05-09T19:04:11.118Z,7.82
2023-05-09T19:06:37.864Z,7.72
2023-05-09T19:09:04.672Z,7.95
2023-05-09T19:11:31.378Z,7.07
2023-05-09T19:14:01.193Z,3.88
2023-05-09T19:16:28.204Z,3.67
2023-05-09T19:18:58.381Z,3.30
2023-05-09T19:21:25.712Z,3.70
2023-05-09T19:23:52.583Z,4.00
2023-05-09T19:26:19.957Z,4.20
2023-05-09T19:28:46.978Z,4.78
2023-05-09T19:31:14.569Z,4.00
2023-05-09T19:33:42.034Z,4.20
2023-05-09T19:36:08.581Z,3.92
2023-05-09T19:38:35.251Z,10.98
2023-05-09T19:41:01.787Z,11.70
2023-05-09T19:43:28.656Z,12.60
2023-05-09T19:45:55.264Z,13.80
2023-05-09T19:48:21.817Z,11.43
2023-05-09T19:50:48.471Z,9.95
2023-05-09T19:53:14.984Z,8.30
2023-05-09T19:55:43.908Z,7.60
2023-05-09T19:58:10.557Z,8.30
2023-05-09T20:00:38.978Z,8.18
2023-05-09T20:03:05.576Z,8.25
2023-05-09T20:05:32.267Z,5.63
2023-05-09T20:07:58.775Z,6.55
2023-05-09T20:10:25.589Z,7.53
2023-05-09T20:12:53.432Z,6.07
2023-05-09T20:15:20.456Z,7.05
2023-05-09T20:17:47.484Z,8.90
2023-05-09T20:20:14.398Z,7.82
2023-05-09T20:22:41.435Z,6.35
2023-05-09T20:25:36.746Z,8.32
2023-05-09T20:28:40.536Z,5.70
2023-05-09T20:31:07.516Z,7.03
2023-05-09T20:33:34.184Z,6.25
2023-05-09T20:36:01.073Z,7.75
2023-05-09T20:38:27.618Z,6.25
2023-05-09T20:40:54.101Z,6.60
2023-05-09T20:43:20.840Z,10.05
2023-05-09T20:45:47.394Z,11.80
2023-05-09T20:48:14.012Z,9.23
2023-05-09T20:50:40.871Z,10.50
2023-05-09T20:53:07.381Z,8.70
2023-05-09T20:55:33.896Z,12.18
2023-05-09T20:58:01.117Z,12.60
2023-05-09T21:00:28.400Z,11.45
2023-05-09T21:02:58.504Z,12.55
2023-05-09T21:05:25.558Z,13.73
2023-05-09T21:07:52.126Z,13.75
2023-05-09T21:10:18.793Z,11.70
2023-05-09T21:12:45.350Z,12.48
2023-05-09T21:15:12.120Z,10.70
2023-05-09T21:17:38.835Z,12.45
2023-05-09T21:20:06.005Z,14.75
2023-05-09T21:22:32.525Z,14.10
2023-05-09T21:24:59.135Z,11.02
2023-05-09T21:27:25.695Z,12.00
2023-05-09T21:29:52.227Z,12.02
2023-05-09T21:32:18.803Z,10.10
2023-05-09T21:34:47.483Z,9.80
2023-05-09T21:37:14.062Z,9.68
2023-05-09T21:39:40.599Z,8.90
2023-05-09T21:42:07.298Z,9.15
2023-05-09T21:44:34.221Z,9.18
2023-05-09T21:47:00.899Z,8.00
2023-05-09T21:49:29.053Z,7.70
2023-05-09T21:51:56.084Z,7.53
2023-05-09T21:54:22.693Z,9.57
2023-05-09T21:56:49.225Z,7.72
2023-05-09T21:59:17.896Z,8.52
2023-05-09T22:01:45.915Z,9.93
2023-05-09T22:04:12.700Z,7.50
2023-05-09T22:06:39.560Z,7.77
2023-05-09T22:09:06.969Z,8.07
2023-05-09T22:11:33.799Z,9.03
2023-05-09T22:14:00.351Z,8.38
2023-05-09T22:16:27.048Z,9.05
2023-05-09T22:18:53.976Z,7.40
2023-05-09T22:21:20.550Z,8.45
2023-05-09T22:23:49.337Z,8.73
2023-05-09T22:26:16.035Z,8.50
2023-05-09T22:28:42.615Z,8.30
2023-05-09T22:31:09.253Z,8.63
2023-05-09T22:33:35.919Z,8.93
2023-05-09T22:36:02.502Z,8.85
2023-05-09T22:38:29.070Z,10.38
2023-05-09T22:40:55.674Z,9.37
2023-05-09T22:43:22.563Z,8.10
2023-05-09T22:45:49.324Z,7.68
2023-05-09T22:48:15.977Z,7.73
2023-05-09T22:50:42.513Z,6.70
2023-05-09T22:53:09.357Z,7.53
2023-05-09T22:55:36.677Z,6.93
2023-05-09T22:58:03.931Z,7.23
2023-05-09T23:00:30.660Z,6.60
2023-05-09T23:02:57.386Z,7.03
2023-05-09T23:08:48.682Z,6.20
2023-05-09T23:11:15.378Z,7.00
2023-05-09T23:13:42.992Z,6.27
2023-05-09T23:16:09.480Z,5.57
2023-05-09T23:18:36.166Z,5.10
2023-05-09T23:21:02.744Z,5.85
2023-05-09T23:23:29.252Z,4.63
2023-05-09T23:25:55.823Z,4.70
2023-05-09T23:28:25.339Z,4.95
2023-05-09T23:30:53.506Z,5.17
2023-05-09T23:33:20.326Z,4.88
2023-05-09T23:35:47.504Z,5.45
2023-05-09T23:38:13.987Z,4.88
2023-05-09T23:40:44.140Z,4.77
2023-05-09T23:43:11.318Z,3.83
2023-05-09T23:45:37.821Z,4.30
2023-05-09T23:48:04.931Z,4.78
2023-05-09T23:50:31.495Z,4.65
2023-05-09T23:52:58.001Z,4.78
2023-05-09T23:55:24.533Z,5.72
2023-05-09T23:57:51.058Z,4.77
